首页
METAR-TAF:

METAR-TAF

机场 :

漢堡-芬肯維德機場

Finkenwerder, 德国

纬度: 53-32N, 经度: 009-50E, 海拔: 5米

当前天气观测

该预报发布于16分钟前的09:20 UTC
风速4节,风向东转东南,在东转东北东南之间变化
温度 6°C
湿度 93%
气压 1009 hPa
能見度: 8000

METAR: EDHI 220920Z 11004KT 060V140 8000 NSC 06/05 Q1009

时间: 10:36 (09:36 UTC)

预报

该预报发布于1小时和36分钟前的08:00 UTC
预报有效从22日的 09点(UTC)到 22日的 18点(UTC)
风速6节,风向东转东南
能見度: 9000
短暂存在
从 22日的 15点(UTC)到 22日的 18点(UTC)
多云层高于800英尺

TAF: EDHI 220800Z 2209/2218 12006KT 9000 NSC TEMPO 2215/2218 BKN008

超过4000个机场的气象观测和天气预报(METAR&TAF报告)。

可查询的气象台以黄色和红色小点在地图上表示。

将鼠标移到小点上方,可查看气象台名称。

然后点击查看天气观测和预报。

如需切换地图:点击带黑十字的绿色按钮放大地图;点击带横线的绿色按钮缩小地图;或者点击绿色箭头查看邻近地区的地图。


METAR-TAF: